sensor_id;sensor_type;location;lat;lon;timestamp;P1;durP1;ratioP1;P2;durP2;ratioP2
35971;SDS011;22052;0.000;0.000;2022-09-17T00:01:16;8.85;;;1.48;;
35971;SDS011;22052;0.000;0.000;2022-09-17T00:03:47;5.07;;;1.10;;
35971;SDS011;22052;0.000;0.000;2022-09-17T00:06:16;5.00;;;1.23;;
35971;SDS011;22052;0.000;0.000;2022-09-17T00:08:45;5.70;;;1.10;;
35971;SDS011;22052;0.000;0.000;2022-09-17T00:11:14;6.15;;;1.15;;
35971;SDS011;22052;0.000;0.000;2022-09-17T00:13:45;4.05;;;1.10;;
35971;SDS011;22052;0.000;0.000;2022-09-17T00:16:20;5.05;;;1.08;;
35971;SDS011;22052;0.000;0.000;2022-09-17T00:18:48;4.68;;;1.20;;
35971;SDS011;22052;0.000;0.000;2022-09-17T00:21:16;4.38;;;1.02;;
35971;SDS011;22052;0.000;0.000;2022-09-17T00:23:43;4.03;;;1.02;;
35971;SDS011;22052;0.000;0.000;2022-09-17T00:26:13;5.55;;;1.17;;
35971;SDS011;22052;0.000;0.000;2022-09-17T00:28:41;5.78;;;1.30;;
35971;SDS011;22052;0.000;0.000;2022-09-17T00:31:13;5.82;;;1.30;;
35971;SDS011;22052;0.000;0.000;2022-09-17T00:33:40;5.25;;;1.27;;
35971;SDS011;22052;0.000;0.000;2022-09-17T00:36:09;5.47;;;1.05;;
35971;SDS011;22052;0.000;0.000;2022-09-17T00:38:41;3.95;;;1.20;;
35971;SDS011;22052;0.000;0.000;2022-09-17T00:41:14;3.88;;;1.02;;
35971;SDS011;22052;0.000;0.000;2022-09-17T00:43:46;4.55;;;1.13;;
35971;SDS011;22052;0.000;0.000;2022-09-17T00:46:23;5.72;;;1.10;;
35971;SDS011;22052;0.000;0.000;2022-09-17T00:48:53;4.90;;;1.23;;
35971;SDS011;22052;0.000;0.000;2022-09-17T00:51:23;6.75;;;1.00;;
35971;SDS011;22052;0.000;0.000;2022-09-17T00:53:52;5.63;;;1.00;;
35971;SDS011;22052;0.000;0.000;2022-09-17T00:56:22;3.78;;;1.23;;
35971;SDS011;22052;0.000;0.000;2022-09-17T00:58:50;4.30;;;0.95;;
35971;SDS011;22052;0.000;0.000;2022-09-17T01:01:18;4.70;;;1.10;;
35971;SDS011;22052;0.000;0.000;2022-09-17T01:03:47;5.68;;;1.00;;
35971;SDS011;22052;0.000;0.000;2022-09-17T01:06:20;4.13;;;1.00;;
35971;SDS011;22052;0.000;0.000;2022-09-17T01:11:40;4.15;;;1.08;;
35971;SDS011;22052;0.000;0.000;2022-09-17T01:16:47;2.92;;;0.80;;
35971;SDS011;22052;0.000;0.000;2022-09-17T01:22:05;3.25;;;0.90;;
35971;SDS011;22052;0.000;0.000;2022-09-17T01:24:45;4.57;;;1.20;;
35971;SDS011;22052;0.000;0.000;2022-09-17T01:32:41;2.25;;;0.60;;
35971;SDS011;22052;0.000;0.000;2022-09-17T01:35:30;3.03;;;0.70;;
35971;SDS011;22052;0.000;0.000;2022-09-17T01:38:04;2.55;;;0.80;;
35971;SDS011;22052;0.000;0.000;2022-09-17T01:40:52;2.90;;;0.90;;
35971;SDS011;22052;0.000;0.000;2022-09-17T01:43:31;3.53;;;0.85;;
35971;SDS011;22052;0.000;0.000;2022-09-17T01:46:12;1.77;;;0.70;;
35971;SDS011;22052;0.000;0.000;2022-09-17T01:48:43;4.13;;;1.00;;
35971;SDS011;22052;0.000;0.000;2022-09-17T01:51:16;4.18;;;0.80;;
35971;SDS011;22052;0.000;0.000;2022-09-17T01:54:09;2.60;;;0.70;;
35971;SDS011;22052;0.000;0.000;2022-09-17T01:56:53;3.05;;;0.93;;
35971;SDS011;22052;0.000;0.000;2022-09-17T01:59:24;2.40;;;1.05;;
35971;SDS011;22052;0.000;0.000;2022-09-17T02:01:57;3.70;;;0.80;;
35971;SDS011;22052;0.000;0.000;2022-09-17T02:04:34;2.85;;;0.85;;
35971;SDS011;22052;0.000;0.000;2022-09-17T02:07:07;4.22;;;1.10;;
35971;SDS011;22052;0.000;0.000;2022-09-17T02:09:40;2.10;;;0.73;;
35971;SDS011;22052;0.000;0.000;2022-09-17T02:12:10;2.45;;;0.80;;
35971;SDS011;22052;0.000;0.000;2022-09-17T02:14:41;3.08;;;0.95;;
35971;SDS011;22052;0.000;0.000;2022-09-17T02:17:18;2.05;;;0.63;;
35971;SDS011;22052;0.000;0.000;2022-09-17T02:19:47;1.75;;;0.60;;
35971;SDS011;22052;0.000;0.000;2022-09-17T02:22:33;2.85;;;0.70;;
35971;SDS011;22052;0.000;0.000;2022-09-17T02:25:04;3.58;;;0.90;;
35971;SDS011;22052;0.000;0.000;2022-09-17T02:27:51;2.15;;;0.70;;
35971;SDS011;22052;0.000;0.000;2022-09-17T02:30:21;3.17;;;0.90;;
35971;SDS011;22052;0.000;0.000;2022-09-17T02:32:53;2.22;;;0.90;;
35971;SDS011;22052;0.000;0.000;2022-09-17T02:35:20;3.78;;;1.02;;
35971;SDS011;22052;0.000;0.000;2022-09-17T02:37:48;4.00;;;0.77;;
35971;SDS011;22052;0.000;0.000;2022-09-17T02:40:19;3.58;;;0.88;;
35971;SDS011;22052;0.000;0.000;2022-09-17T02:45:52;1.60;;;0.75;;
35971;SDS011;22052;0.000;0.000;2022-09-17T02:48:46;3.22;;;0.50;;
35971;SDS011;22052;0.000;0.000;2022-09-17T02:51:21;1.90;;;0.63;;
35971;SDS011;22052;0.000;0.000;2022-09-17T02:53:55;2.17;;;0.67;;
35971;SDS011;22052;0.000;0.000;2022-09-17T03:01:58;2.53;;;0.80;;
35971;SDS011;22052;0.000;0.000;2022-09-17T03:04:29;2.05;;;0.70;;
35971;SDS011;22052;0.000;0.000;2022-09-17T03:06:58;2.13;;;0.63;;
35971;SDS011;22052;0.000;0.000;2022-09-17T03:09:29;3.75;;;0.93;;
35971;SDS011;22052;0.000;0.000;2022-09-17T03:11:59;2.17;;;0.60;;
35971;SDS011;22052;0.000;0.000;2022-09-17T03:14:29;2.72;;;0.52;;
35971;SDS011;22052;0.000;0.000;2022-09-17T03:16:58;1.10;;;0.60;;
35971;SDS011;22052;0.000;0.000;2022-09-17T03:19:25;3.00;;;0.80;;
35971;SDS011;22052;0.000;0.000;2022-09-17T03:21:52;1.98;;;0.80;;
35971;SDS011;22052;0.000;0.000;2022-09-17T03:24:20;2.25;;;0.63;;
35971;SDS011;22052;0.000;0.000;2022-09-17T03:26:50;2.95;;;0.60;;
35971;SDS011;22052;0.000;0.000;2022-09-17T03:29:17;2.05;;;0.70;;
35971;SDS011;22052;0.000;0.000;2022-09-17T03:31:46;1.70;;;0.60;;
35971;SDS011;22052;0.000;0.000;2022-09-17T03:34:15;2.70;;;0.73;;
35971;SDS011;22052;0.000;0.000;2022-09-17T03:36:43;2.45;;;0.70;;
35971;SDS011;22052;0.000;0.000;2022-09-17T03:39:11;1.15;;;0.55;;
35971;SDS011;22052;0.000;0.000;2022-09-17T03:41:38;1.98;;;0.63;;
35971;SDS011;22052;0.000;0.000;2022-09-17T03:44:08;2.55;;;0.70;;
35971;SDS011;22052;0.000;0.000;2022-09-17T03:46:36;1.52;;;0.57;;
35971;SDS011;22052;0.000;0.000;2022-09-17T03:49:04;1.23;;;0.70;;
35971;SDS011;22052;0.000;0.000;2022-09-17T03:51:31;2.13;;;0.63;;
35971;SDS011;22052;0.000;0.000;2022-09-17T03:54:00;2.97;;;0.50;;
35971;SDS011;22052;0.000;0.000;2022-09-17T03:56:28;1.92;;;0.50;;
35971;SDS011;22052;0.000;0.000;2022-09-17T03:58:56;2.38;;;0.70;;
35971;SDS011;22052;0.000;0.000;2022-09-17T04:01:24;2.17;;;0.70;;
35971;SDS011;22052;0.000;0.000;2022-09-17T04:03:51;2.55;;;0.70;;
35971;SDS011;22052;0.000;0.000;2022-09-17T04:06:21;1.42;;;0.70;;
35971;SDS011;22052;0.000;0.000;2022-09-17T04:08:49;2.20;;;0.68;;
35971;SDS011;22052;0.000;0.000;2022-09-17T04:11:18;1.15;;;0.40;;
35971;SDS011;22052;0.000;0.000;2022-09-17T04:13:45;2.10;;;0.70;;
35971;SDS011;22052;0.000;0.000;2022-09-17T04:16:13;1.80;;;0.60;;
35971;SDS011;22052;0.000;0.000;2022-09-17T04:18:42;3.15;;;0.75;;
35971;SDS011;22052;0.000;0.000;2022-09-17T04:21:10;2.25;;;0.68;;
35971;SDS011;22052;0.000;0.000;2022-09-17T04:23:38;1.67;;;0.52;;
35971;SDS011;22052;0.000;0.000;2022-09-17T04:26:10;2.95;;;0.75;;
35971;SDS011;22052;0.000;0.000;2022-09-17T04:28:41;3.33;;;0.70;;
35971;SDS011;22052;0.000;0.000;2022-09-17T04:31:08;3.97;;;0.75;;
35971;SDS011;22052;0.000;0.000;2022-09-17T04:33:36;3.67;;;0.70;;
35971;SDS011;22052;0.000;0.000;2022-09-17T04:36:05;3.05;;;0.70;;
35971;SDS011;22052;0.000;0.000;2022-09-17T04:38:33;1.10;;;0.40;;
35971;SDS011;22052;0.000;0.000;2022-09-17T04:41:01;2.17;;;0.50;;
35971;SDS011;22052;0.000;0.000;2022-09-17T04:43:31;2.75;;;0.70;;
35971;SDS011;22052;0.000;0.000;2022-09-17T04:45:59;2.25;;;0.70;;
35971;SDS011;22052;0.000;0.000;2022-09-17T04:48:26;3.45;;;0.60;;
35971;SDS011;22052;0.000;0.000;2022-09-17T04:50:54;2.50;;;0.60;;
35971;SDS011;22052;0.000;0.000;2022-09-17T04:53:21;3.45;;;0.65;;
35971;SDS011;22052;0.000;0.000;2022-09-17T04:55:49;2.88;;;0.70;;
35971;SDS011;22052;0.000;0.000;2022-09-17T04:58:17;4.70;;;0.60;;
35971;SDS011;22052;0.000;0.000;2022-09-17T05:00:44;2.72;;;0.65;;
35971;SDS011;22052;0.000;0.000;2022-09-17T05:03:12;1.63;;;0.60;;
35971;SDS011;22052;0.000;0.000;2022-09-17T05:05:40;2.70;;;0.60;;
35971;SDS011;22052;0.000;0.000;2022-09-17T05:08:08;5.60;;;0.70;;
35971;SDS011;22052;0.000;0.000;2022-09-17T05:10:36;1.88;;;0.45;;
35971;SDS011;22052;0.000;0.000;2022-09-17T05:13:04;5.47;;;0.63;;
35971;SDS011;22052;0.000;0.000;2022-09-17T05:15:33;4.97;;;0.70;;
35971;SDS011;22052;0.000;0.000;2022-09-17T05:18:01;3.33;;;0.63;;
35971;SDS011;22052;0.000;0.000;2022-09-17T05:20:31;3.15;;;0.75;;
35971;SDS011;22052;0.000;0.000;2022-09-17T05:22:58;3.95;;;0.70;;
35971;SDS011;22052;0.000;0.000;2022-09-17T05:25:26;1.75;;;0.45;;
35971;SDS011;22052;0.000;0.000;2022-09-17T05:27:54;2.33;;;0.60;;
35971;SDS011;22052;0.000;0.000;2022-09-17T05:30:23;4.80;;;0.80;;
35971;SDS011;22052;0.000;0.000;2022-09-17T05:33:01;4.07;;;0.90;;
35971;SDS011;22052;0.000;0.000;2022-09-17T05:35:31;5.65;;;0.80;;
35971;SDS011;22052;0.000;0.000;2022-09-17T05:37:59;6.75;;;0.88;;
35971;SDS011;22052;0.000;0.000;2022-09-17T05:40:28;2.33;;;0.70;;
35971;SDS011;22052;0.000;0.000;2022-09-17T05:42:58;6.03;;;0.70;;
35971;SDS011;22052;0.000;0.000;2022-09-17T05:45:27;3.78;;;0.70;;
35971;SDS011;22052;0.000;0.000;2022-09-17T05:47:57;3.55;;;0.70;;
35971;SDS011;22052;0.000;0.000;2022-09-17T05:50:32;5.97;;;0.70;;
35971;SDS011;22052;0.000;0.000;2022-09-17T05:53:05;4.80;;;0.95;;
35971;SDS011;22052;0.000;0.000;2022-09-17T05:55:33;5.13;;;1.10;;
35971;SDS011;22052;0.000;0.000;2022-09-17T05:58:09;3.80;;;0.80;;
35971;SDS011;22052;0.000;0.000;2022-09-17T06:00:38;7.55;;;0.88;;
35971;SDS011;22052;0.000;0.000;2022-09-17T06:03:12;8.52;;;1.10;;
35971;SDS011;22052;0.000;0.000;2022-09-17T06:05:40;4.22;;;0.80;;
35971;SDS011;22052;0.000;0.000;2022-09-17T06:08:08;5.00;;;0.75;;
35971;SDS011;22052;0.000;0.000;2022-09-17T06:10:37;3.65;;;0.80;;
35971;SDS011;22052;0.000;0.000;2022-09-17T06:13:08;4.70;;;0.80;;
35971;SDS011;22052;0.000;0.000;2022-09-17T06:15:35;2.60;;;0.77;;
35971;SDS011;22052;0.000;0.000;2022-09-17T06:18:06;3.20;;;0.80;;
35971;SDS011;22052;0.000;0.000;2022-09-17T06:20:34;2.70;;;0.70;;
35971;SDS011;22052;0.000;0.000;2022-09-17T06:23:10;3.47;;;0.60;;
35971;SDS011;22052;0.000;0.000;2022-09-17T06:25:39;4.78;;;0.77;;
35971;SDS011;22052;0.000;0.000;2022-09-17T06:28:10;3.38;;;0.90;;
35971;SDS011;22052;0.000;0.000;2022-09-17T06:30:39;3.25;;;0.95;;
35971;SDS011;22052;0.000;0.000;2022-09-17T06:33:08;2.20;;;0.60;;
35971;SDS011;22052;0.000;0.000;2022-09-17T06:35:35;5.82;;;0.80;;
35971;SDS011;22052;0.000;0.000;2022-09-17T06:38:03;3.92;;;0.60;;
35971;SDS011;22052;0.000;0.000;2022-09-17T06:40:34;3.90;;;0.70;;
35971;SDS011;22052;0.000;0.000;2022-09-17T06:43:03;5.95;;;0.90;;
35971;SDS011;22052;0.000;0.000;2022-09-17T06:45:31;6.18;;;1.05;;
35971;SDS011;22052;0.000;0.000;2022-09-17T06:48:02;6.88;;;0.80;;
35971;SDS011;22052;0.000;0.000;2022-09-17T06:50:36;6.25;;;1.10;;
35971;SDS011;22052;0.000;0.000;2022-09-17T06:53:05;4.40;;;0.93;;
35971;SDS011;22052;0.000;0.000;2022-09-17T06:55:36;4.18;;;0.65;;
35971;SDS011;22052;0.000;0.000;2022-09-17T06:58:06;7.57;;;0.90;;
35971;SDS011;22052;0.000;0.000;2022-09-17T07:00:36;3.95;;;0.70;;
35971;SDS011;22052;0.000;0.000;2022-09-17T07:03:04;3.53;;;0.90;;
35971;SDS011;22052;0.000;0.000;2022-09-17T07:05:33;3.53;;;0.90;;
35971;SDS011;22052;0.000;0.000;2022-09-17T07:08:01;3.25;;;0.77;;
35971;SDS011;22052;0.000;0.000;2022-09-17T07:10:29;6.07;;;1.02;;
35971;SDS011;22052;0.000;0.000;2022-09-17T07:12:57;5.07;;;1.27;;
35971;SDS011;22052;0.000;0.000;2022-09-17T07:15:24;6.20;;;1.10;;
35971;SDS011;22052;0.000;0.000;2022-09-17T07:17:51;8.60;;;1.05;;
35971;SDS011;22052;0.000;0.000;2022-09-17T07:20:19;7.18;;;1.05;;
35971;SDS011;22052;0.000;0.000;2022-09-17T07:22:56;6.10;;;0.95;;
35971;SDS011;22052;0.000;0.000;2022-09-17T07:25:25;9.82;;;1.20;;
35971;SDS011;22052;0.000;0.000;2022-09-17T07:27:53;3.40;;;0.93;;
35971;SDS011;22052;0.000;0.000;2022-09-17T07:30:21;5.43;;;0.98;;
35971;SDS011;22052;0.000;0.000;2022-09-17T07:32:49;5.00;;;1.25;;
35971;SDS011;22052;0.000;0.000;2022-09-17T07:35:18;6.90;;;1.20;;
35971;SDS011;22052;0.000;0.000;2022-09-17T07:37:46;7.82;;;1.00;;
35971;SDS011;22052;0.000;0.000;2022-09-17T07:40:13;6.30;;;1.10;;
35971;SDS011;22052;0.000;0.000;2022-09-17T07:42:41;3.83;;;0.95;;
35971;SDS011;22052;0.000;0.000;2022-09-17T07:45:09;3.92;;;0.90;;
35971;SDS011;22052;0.000;0.000;2022-09-17T07:47:37;6.18;;;1.40;;
35971;SDS011;22052;0.000;0.000;2022-09-17T07:50:17;6.45;;;1.08;;
35971;SDS011;22052;0.000;0.000;2022-09-17T07:52:45;6.53;;;1.08;;
35971;SDS011;22052;0.000;0.000;2022-09-17T07:55:14;6.88;;;1.25;;
35971;SDS011;22052;0.000;0.000;2022-09-17T07:57:42;11.68;;;1.30;;
35971;SDS011;22052;0.000;0.000;2022-09-17T08:00:14;6.75;;;1.40;;
35971;SDS011;22052;0.000;0.000;2022-09-17T08:02:42;11.48;;;1.27;;
35971;SDS011;22052;0.000;0.000;2022-09-17T08:05:10;7.90;;;1.02;;
35971;SDS011;22052;0.000;0.000;2022-09-17T08:10:33;8.85;;;1.65;;
35971;SDS011;22052;0.000;0.000;2022-09-17T08:13:25;7.28;;;1.55;;
35971;SDS011;22052;0.000;0.000;2022-09-17T08:15:51;6.43;;;1.15;;
35971;SDS011;22052;0.000;0.000;2022-09-17T08:18:22;3.85;;;0.90;;
35971;SDS011;22052;0.000;0.000;2022-09-17T08:21:00;4.90;;;1.30;;
35971;SDS011;22052;0.000;0.000;2022-09-17T08:23:43;7.00;;;1.30;;
35971;SDS011;22052;0.000;0.000;2022-09-17T08:26:19;5.88;;;1.20;;
35971;SDS011;22052;0.000;0.000;2022-09-17T08:28:49;9.15;;;1.17;;
35971;SDS011;22052;0.000;0.000;2022-09-17T08:31:17;6.88;;;1.23;;
35971;SDS011;22052;0.000;0.000;2022-09-17T08:33:48;11.75;;;1.20;;
35971;SDS011;22052;0.000;0.000;2022-09-17T08:36:20;8.07;;;1.23;;
35971;SDS011;22052;0.000;0.000;2022-09-17T08:39:06;7.40;;;1.23;;
35971;SDS011;22052;0.000;0.000;2022-09-17T08:41:44;5.25;;;0.95;;
35971;SDS011;22052;0.000;0.000;2022-09-17T08:44:58;10.20;;;1.30;;
35971;SDS011;22052;0.000;0.000;2022-09-17T08:47:52;5.10;;;1.20;;
35971;SDS011;22052;0.000;0.000;2022-09-17T08:50:31;9.95;;;1.45;;
35971;SDS011;22052;0.000;0.000;2022-09-17T08:55:44;7.63;;;0.93;;
35971;SDS011;22052;0.000;0.000;2022-09-17T09:06:41;7.00;;;1.00;;
35971;SDS011;22052;0.000;0.000;2022-09-17T09:09:12;7.47;;;1.20;;
35971;SDS011;22052;0.000;0.000;2022-09-17T09:11:43;7.97;;;1.40;;
35971;SDS011;22052;0.000;0.000;2022-09-17T09:14:32;10.60;;;1.55;;
35971;SDS011;22052;0.000;0.000;2022-09-17T09:17:04;10.43;;;1.50;;
35971;SDS011;22052;0.000;0.000;2022-09-17T09:19:40;13.25;;;1.38;;
35971;SDS011;22052;0.000;0.000;2022-09-17T09:24:44;8.77;;;1.38;;
35971;SDS011;22052;0.000;0.000;2022-09-17T09:27:15;7.10;;;1.05;;
35971;SDS011;22052;0.000;0.000;2022-09-17T09:30:10;8.80;;;1.45;;
35971;SDS011;22052;0.000;0.000;2022-09-17T09:35:49;7.53;;;1.15;;
35971;SDS011;22052;0.000;0.000;2022-09-17T09:38:34;6.13;;;1.20;;
35971;SDS011;22052;0.000;0.000;2022-09-17T09:41:11;5.18;;;1.13;;
35971;SDS011;22052;0.000;0.000;2022-09-17T09:43:47;5.72;;;1.25;;
35971;SDS011;22052;0.000;0.000;2022-09-17T09:46:28;5.75;;;1.33;;
35971;SDS011;22052;0.000;0.000;2022-09-17T09:51:48;6.93;;;1.10;;
35971;SDS011;22052;0.000;0.000;2022-09-17T09:56:56;7.60;;;1.30;;
35971;SDS011;22052;0.000;0.000;2022-09-17T09:59:27;6.85;;;1.20;;
35971;SDS011;22052;0.000;0.000;2022-09-17T10:02:19;8.30;;;1.30;;
35971;SDS011;22052;0.000;0.000;2022-09-17T10:05:06;11.57;;;1.50;;
35971;SDS011;22052;0.000;0.000;2022-09-17T10:07:41;6.15;;;1.10;;
35971;SDS011;22052;0.000;0.000;2022-09-17T10:10:25;7.97;;;1.33;;
35971;SDS011;22052;0.000;0.000;2022-09-17T10:13:08;10.93;;;1.77;;
35971;SDS011;22052;0.000;0.000;2022-09-17T10:15:43;5.38;;;1.48;;
35971;SDS011;22052;0.000;0.000;2022-09-17T10:18:17;7.88;;;1.23;;
35971;SDS011;22052;0.000;0.000;2022-09-17T10:20:52;10.15;;;1.30;;
35971;SDS011;22052;0.000;0.000;2022-09-17T10:23:21;9.25;;;1.05;;
35971;SDS011;22052;0.000;0.000;2022-09-17T10:25:49;8.63;;;1.48;;
35971;SDS011;22052;0.000;0.000;2022-09-17T10:28:35;7.25;;;1.50;;
35971;SDS011;22052;0.000;0.000;2022-09-17T10:31:07;8.68;;;1.30;;
35971;SDS011;22052;0.000;0.000;2022-09-17T10:33:57;9.63;;;1.40;;
35971;SDS011;22052;0.000;0.000;2022-09-17T10:39:45;7.30;;;1.20;;
35971;SDS011;22052;0.000;0.000;2022-09-17T10:42:16;8.45;;;1.30;;
35971;SDS011;22052;0.000;0.000;2022-09-17T10:50:41;11.00;;;1.40;;
35971;SDS011;22052;0.000;0.000;2022-09-17T10:53:15;8.55;;;1.15;;
35971;SDS011;22052;0.000;0.000;2022-09-17T11:26:55;10.35;;;1.50;;
35971;SDS011;22052;0.000;0.000;2022-09-17T11:29:28;8.40;;;1.58;;
35971;SDS011;22052;0.000;0.000;2022-09-17T11:32:04;5.60;;;1.10;;
35971;SDS011;22052;0.000;0.000;2022-09-17T11:40:18;9.98;;;1.38;;
35971;SDS011;22052;0.000;0.000;2022-09-17T11:42:55;5.90;;;1.30;;
35971;SDS011;22052;0.000;0.000;2022-09-17T11:45:29;10.55;;;1.70;;
35971;SDS011;22052;0.000;0.000;2022-09-17T11:48:02;7.28;;;1.55;;
35971;SDS011;22052;0.000;0.000;2022-09-17T11:50:42;7.38;;;1.23;;
35971;SDS011;22052;0.000;0.000;2022-09-17T11:53:18;6.53;;;1.58;;
35971;SDS011;22052;0.000;0.000;2022-09-17T11:55:53;7.82;;;1.40;;
35971;SDS011;22052;0.000;0.000;2022-09-17T12:14:28;6.70;;;1.40;;
35971;SDS011;22052;0.000;0.000;2022-09-17T12:16:56;8.02;;;1.50;;
35971;SDS011;22052;0.000;0.000;2022-09-17T12:19:32;5.00;;;1.35;;
35971;SDS011;22052;0.000;0.000;2022-09-17T12:24:32;3.97;;;1.58;;
35971;SDS011;22052;0.000;0.000;2022-09-17T12:32:08;9.65;;;1.27;;
35971;SDS011;22052;0.000;0.000;2022-09-17T12:35:15;4.35;;;1.17;;
35971;SDS011;22052;0.000;0.000;2022-09-17T12:37:48;3.50;;;0.88;;
35971;SDS011;22052;0.000;0.000;2022-09-17T12:45:35;10.20;;;1.30;;
35971;SDS011;22052;0.000;0.000;2022-09-17T12:53:46;5.43;;;1.02;;
35971;SDS011;22052;0.000;0.000;2022-09-17T13:01:20;8.45;;;1.00;;
35971;SDS011;22052;0.000;0.000;2022-09-17T13:03:57;8.52;;;1.23;;
35971;SDS011;22052;0.000;0.000;2022-09-17T13:11:38;4.15;;;1.13;;
35971;SDS011;22052;0.000;0.000;2022-09-17T13:14:18;6.28;;;1.23;;
35971;SDS011;22052;0.000;0.000;2022-09-17T13:21:53;3.80;;;1.08;;
35971;SDS011;22052;0.000;0.000;2022-09-17T13:24:23;6.22;;;1.00;;
35971;SDS011;22052;0.000;0.000;2022-09-17T13:26:51;6.53;;;1.42;;
35971;SDS011;22052;0.000;0.000;2022-09-17T13:32:03;6.70;;;1.27;;
35971;SDS011;22052;0.000;0.000;2022-09-17T13:34:30;4.97;;;1.30;;
35971;SDS011;22052;0.000;0.000;2022-09-17T13:36:57;6.32;;;1.33;;
35971;SDS011;22052;0.000;0.000;2022-09-17T13:42:00;6.43;;;1.00;;
35971;SDS011;22052;0.000;0.000;2022-09-17T13:44:28;6.28;;;0.90;;
35971;SDS011;22052;0.000;0.000;2022-09-17T13:47:06;8.60;;;1.02;;
35971;SDS011;22052;0.000;0.000;2022-09-17T13:49:33;5.85;;;1.10;;
35971;SDS011;22052;0.000;0.000;2022-09-17T13:51:59;4.90;;;1.00;;
35971;SDS011;22052;0.000;0.000;2022-09-17T13:54:34;5.50;;;1.20;;
35971;SDS011;22052;0.000;0.000;2022-09-17T13:57:03;4.90;;;1.10;;
35971;SDS011;22052;0.000;0.000;2022-09-17T13:59:31;8.20;;;1.40;;
35971;SDS011;22052;0.000;0.000;2022-09-17T14:02:01;3.20;;;0.95;;
35971;SDS011;22052;0.000;0.000;2022-09-17T14:10:26;7.82;;;1.67;;
35971;SDS011;22052;0.000;0.000;2022-09-17T14:12:53;4.15;;;0.82;;
35971;SDS011;22052;0.000;0.000;2022-09-17T14:15:33;4.55;;;1.20;;
35971;SDS011;22052;0.000;0.000;2022-09-17T14:20:48;3.80;;;1.00;;
35971;SDS011;22052;0.000;0.000;2022-09-17T14:23:14;5.78;;;1.30;;
35971;SDS011;22052;0.000;0.000;2022-09-17T14:25:43;6.75;;;1.10;;
35971;SDS011;22052;0.000;0.000;2022-09-17T14:28:21;4.72;;;0.93;;
35971;SDS011;22052;0.000;0.000;2022-09-17T14:30:52;5.55;;;1.42;;
35971;SDS011;22052;0.000;0.000;2022-09-17T14:33:20;3.38;;;0.90;;
35971;SDS011;22052;0.000;0.000;2022-09-17T14:35:51;3.58;;;0.80;;
35971;SDS011;22052;0.000;0.000;2022-09-17T14:38:21;5.28;;;1.08;;
35971;SDS011;22052;0.000;0.000;2022-09-17T14:40:52;5.93;;;1.15;;
35971;SDS011;22052;0.000;0.000;2022-09-17T14:43:30;8.15;;;1.20;;
35971;SDS011;22052;0.000;0.000;2022-09-17T14:46:02;4.18;;;0.80;;
35971;SDS011;22052;0.000;0.000;2022-09-17T14:48:31;9.15;;;1.15;;
35971;SDS011;22052;0.000;0.000;2022-09-17T14:53:46;4.68;;;0.80;;
35971;SDS011;22052;0.000;0.000;2022-09-17T14:56:16;5.57;;;1.00;;
35971;SDS011;22052;0.000;0.000;2022-09-17T14:58:53;3.10;;;0.75;;
35971;SDS011;22052;0.000;0.000;2022-09-17T15:01:26;5.30;;;1.05;;
35971;SDS011;22052;0.000;0.000;2022-09-17T15:04:14;5.95;;;0.85;;
35971;SDS011;22052;0.000;0.000;2022-09-17T15:11:46;5.57;;;1.00;;
35971;SDS011;22052;0.000;0.000;2022-09-17T15:14:16;5.78;;;1.02;;
35971;SDS011;22052;0.000;0.000;2022-09-17T15:16:47;5.43;;;1.00;;
35971;SDS011;22052;0.000;0.000;2022-09-17T15:22:02;6.03;;;1.10;;
35971;SDS011;22052;0.000;0.000;2022-09-17T15:27:13;1.60;;;0.70;;
35971;SDS011;22052;0.000;0.000;2022-09-17T15:29:45;2.85;;;0.75;;
35971;SDS011;22052;0.000;0.000;2022-09-17T15:32:14;5.25;;;0.70;;
35971;SDS011;22052;0.000;0.000;2022-09-17T15:34:43;4.70;;;0.82;;
35971;SDS011;22052;0.000;0.000;2022-09-17T15:37:20;4.88;;;0.80;;
35971;SDS011;22052;0.000;0.000;2022-09-17T15:39:49;2.67;;;0.60;;
35971;SDS011;22052;0.000;0.000;2022-09-17T15:42:22;4.30;;;1.00;;
35971;SDS011;22052;0.000;0.000;2022-09-17T15:44:51;4.15;;;0.90;;
35971;SDS011;22052;0.000;0.000;2022-09-17T15:50:13;3.15;;;0.70;;
35971;SDS011;22052;0.000;0.000;2022-09-17T15:52:45;3.45;;;0.95;;
35971;SDS011;22052;0.000;0.000;2022-09-17T15:55:28;4.75;;;1.10;;
35971;SDS011;22052;0.000;0.000;2022-09-17T15:57:58;3.60;;;0.90;;
35971;SDS011;22052;0.000;0.000;2022-09-17T16:00:28;2.50;;;0.75;;
35971;SDS011;22052;0.000;0.000;2022-09-17T16:02:58;4.30;;;0.95;;
35971;SDS011;22052;0.000;0.000;2022-09-17T16:05:45;5.00;;;0.90;;
35971;SDS011;22052;0.000;0.000;2022-09-17T16:08:16;5.25;;;1.00;;
35971;SDS011;22052;0.000;0.000;2022-09-17T16:10:44;4.60;;;0.80;;
35971;SDS011;22052;0.000;0.000;2022-09-17T16:13:13;2.65;;;0.82;;
35971;SDS011;22052;0.000;0.000;2022-09-17T16:15:41;4.47;;;0.77;;
35971;SDS011;22052;0.000;0.000;2022-09-17T16:18:10;2.85;;;0.70;;
35971;SDS011;22052;0.000;0.000;2022-09-17T16:20:40;2.50;;;0.93;;
35971;SDS011;22052;0.000;0.000;2022-09-17T16:23:08;3.47;;;0.73;;
35971;SDS011;22052;0.000;0.000;2022-09-17T16:25:37;4.78;;;0.77;;
35971;SDS011;22052;0.000;0.000;2022-09-17T16:28:08;2.92;;;0.65;;
35971;SDS011;22052;0.000;0.000;2022-09-17T16:30:37;3.65;;;0.70;;
35971;SDS011;22052;0.000;0.000;2022-09-17T16:33:09;1.83;;;0.50;;
35971;SDS011;22052;0.000;0.000;2022-09-17T16:35:36;2.67;;;0.63;;
35971;SDS011;22052;0.000;0.000;2022-09-17T16:38:05;2.97;;;0.70;;
35971;SDS011;22052;0.000;0.000;2022-09-17T16:40:33;4.00;;;0.75;;
35971;SDS011;22052;0.000;0.000;2022-09-17T16:43:01;2.38;;;0.77;;
35971;SDS011;22052;0.000;0.000;2022-09-17T16:45:33;2.05;;;0.70;;
35971;SDS011;22052;0.000;0.000;2022-09-17T16:48:00;2.50;;;0.63;;
35971;SDS011;22052;0.000;0.000;2022-09-17T16:50:29;2.95;;;0.70;;
35971;SDS011;22052;0.000;0.000;2022-09-17T17:08:32;2.15;;;0.68;;
35971;SDS011;22052;0.000;0.000;2022-09-17T17:11:02;4.18;;;0.82;;
35971;SDS011;22052;0.000;0.000;2022-09-17T17:13:50;2.25;;;0.63;;
35971;SDS011;22052;0.000;0.000;2022-09-17T17:16:20;2.40;;;0.60;;
35971;SDS011;22052;0.000;0.000;2022-09-17T17:18:48;4.05;;;0.70;;
35971;SDS011;22052;0.000;0.000;2022-09-17T17:21:19;1.70;;;0.55;;
35971;SDS011;22052;0.000;0.000;2022-09-17T17:23:48;3.03;;;0.80;;
35971;SDS011;22052;0.000;0.000;2022-09-17T17:26:20;4.07;;;0.88;;
35971;SDS011;22052;0.000;0.000;2022-09-17T17:28:49;2.60;;;0.40;;
35971;SDS011;22052;0.000;0.000;2022-09-17T17:31:17;3.35;;;0.90;;
35971;SDS011;22052;0.000;0.000;2022-09-17T17:33:47;1.85;;;0.68;;
35971;SDS011;22052;0.000;0.000;2022-09-17T17:36:16;2.67;;;0.60;;
35971;SDS011;22052;0.000;0.000;2022-09-17T17:38:44;2.83;;;0.70;;
35971;SDS011;22052;0.000;0.000;2022-09-17T17:41:13;2.70;;;0.80;;
35971;SDS011;22052;0.000;0.000;2022-09-17T17:43:43;2.63;;;0.60;;
35971;SDS011;22052;0.000;0.000;2022-09-17T17:46:14;2.90;;;0.60;;
35971;SDS011;22052;0.000;0.000;2022-09-17T17:48:42;1.95;;;0.70;;
35971;SDS011;22052;0.000;0.000;2022-09-17T17:51:16;2.13;;;0.70;;
35971;SDS011;22052;0.000;0.000;2022-09-17T17:53:51;2.33;;;0.68;;
35971;SDS011;22052;0.000;0.000;2022-09-17T17:56:24;3.80;;;1.00;;
35971;SDS011;22052;0.000;0.000;2022-09-17T17:58:53;2.47;;;0.70;;
35971;SDS011;22052;0.000;0.000;2022-09-17T18:01:23;3.90;;;0.85;;
35971;SDS011;22052;0.000;0.000;2022-09-17T18:04:02;2.95;;;0.80;;
35971;SDS011;22052;0.000;0.000;2022-09-17T18:22:22;0.98;;;0.40;;
35971;SDS011;22052;0.000;0.000;2022-09-17T18:24:48;2.13;;;0.90;;
35971;SDS011;22052;0.000;0.000;2022-09-17T18:27:14;2.33;;;0.70;;
35971;SDS011;22052;0.000;0.000;2022-09-17T18:29:40;3.88;;;0.70;;
35971;SDS011;22052;0.000;0.000;2022-09-17T18:32:06;2.30;;;0.60;;
35971;SDS011;22052;0.000;0.000;2022-09-17T18:34:33;1.83;;;0.60;;
35971;SDS011;22052;0.000;0.000;2022-09-17T18:37:00;3.42;;;0.70;;
35971;SDS011;22052;0.000;0.000;2022-09-17T18:39:27;1.80;;;0.57;;
35971;SDS011;22052;0.000;0.000;2022-09-17T18:41:53;3.67;;;0.50;;
35971;SDS011;22052;0.000;0.000;2022-09-17T18:44:19;2.42;;;0.75;;
35971;SDS011;22052;0.000;0.000;2022-09-17T18:46:46;2.20;;;0.52;;
35971;SDS011;22052;0.000;0.000;2022-09-17T18:49:13;2.20;;;0.70;;
35971;SDS011;22052;0.000;0.000;2022-09-17T18:51:40;3.35;;;0.50;;